»·PEaware :: N1718G KSAN-KLAS

N1718G :: KSAN-KLAS

FLIGHT INFORMATION

Flight Status: Arrived
Operator: Privately registered:
United States
More flights under this callsign
Pilot: Spencer M. (27733)
Aircraft: BEECH AIRCRAFT BARON
(BE58)
More flights by this aircraft type
Origin: KSAN San Diego Intl-Lindbergh
United States
Destination: KLAS McCarran Intl
United States
More flights between these airports :: More routes between these airports
Route: +JLI V208 TRM V514 GFS WHIGG BLD
File this flight plan on PilotEdge
Remarks:
Altitude:
(Current/Filed)
12,000ft
Speed:
(Current/Filed)
180kts
Departed: 14-Jun-20 07:41 PM
Arrived: 14-Jun-20 09:12 PM
Distance/Time
Traveled:
225nm/1:30
Distance/Time
To Go:
Arrived

Flight Plot

Page will automatically refresh every two minutes.

Flight plan parsing failed; only flown route is shown


Map Options




Map Legend


Flown Route
Filed Route
Departure Airport
Arrival Airport
Navaid (VOR, NDB)
Fix

Horizontal Profiles

Position Reports

Time Latitude Longitude Heading Altitude Ground
Speed
14-Jun-20 19:08 32.732421 -117.176641 194 20ft 0kts
14-Jun-20 19:09 32.732421 -117.176641 194 20ft 0kts
14-Jun-20 19:10 32.732421 -117.176641 194 20ft 0kts
14-Jun-20 19:11 32.732421 -117.176641 194 20ft 0kts
14-Jun-20 19:12 32.732421 -117.176641 194 20ft 0kts
14-Jun-20 19:13 32.732421 -117.176641 194 20ft 0kts
14-Jun-20 19:14 32.732421 -117.176641 194 20ft 0kts
14-Jun-20 19:15 32.732421 -117.176641 194 20ft 0kts
14-Jun-20 19:16 32.732421 -117.176641 194 20ft 0kts
14-Jun-20 19:17 32.732421 -117.176641 194 20ft 0kts
14-Jun-20 19:18 32.732421 -117.176641 194 20ft 0kts
14-Jun-20 19:19 32.732421 -117.176641 194 20ft 0kts
14-Jun-20 19:20 32.732421 -117.176641 194 20ft 0kts
14-Jun-20 19:22 32.732421 -117.176641 194 20ft 0kts
14-Jun-20 19:23 32.732421 -117.176641 194 20ft 0kts
14-Jun-20 19:24 32.732421 -117.176641 194 20ft 0kts
14-Jun-20 19:25 32.732421 -117.176641 194 20ft 0kts
14-Jun-20 19:26 32.732421 -117.176641 194 20ft 0kts
14-Jun-20 19:27 32.732421 -117.176641 194 20ft 0kts
14-Jun-20 19:28 32.732421 -117.176641 194 20ft 0kts
14-Jun-20 19:29 32.732421 -117.176641 194 20ft 0kts
14-Jun-20 19:30 32.732421 -117.176641 194 20ft 0kts
14-Jun-20 19:31 32.732421 -117.176641 194 20ft 0kts
14-Jun-20 19:32 32.732421 -117.176641 194 20ft 0kts
14-Jun-20 19:33 32.732421 -117.176641 194 20ft 0kts
14-Jun-20 19:34 32.732421 -117.176641 194 20ft 0kts
14-Jun-20 19:35 32.732421 -117.176641 194 20ft 0kts
14-Jun-20 19:36 32.732326 -117.176632 158 20ft 3kts
14-Jun-20 19:37 32.731004 -117.175165 158 20ft 6kts
14-Jun-20 19:38 32.730838 -117.175091 160 20ft 0kts
14-Jun-20 19:38 32.730838 -117.175091 160 20ft 0kts
14-Jun-20 19:40 32.730332 -117.175206 216 20ft 7kts
14-Jun-20 19:40 32.733427 -117.190688 284 296ft 116kts
14-Jun-20 19:41 32.754450 -117.227518 329 1531ft 154kts
14-Jun-20 19:43 32.797242 -117.201935 49 2645ft 169kts
14-Jun-20 19:43 32.820941 -117.165997 52 3473ft 162kts
14-Jun-20 19:44 32.846726 -117.122467 55 4474ft 163kts
14-Jun-20 19:45 32.871775 -117.076327 55 5477ft 168kts
14-Jun-20 19:46 32.897398 -117.029844 54 6479ft 168kts
14-Jun-20 19:47 32.922910 -116.983685 55 7476ft 166kts
14-Jun-20 19:48 32.947793 -116.938459 56 8469ft 161kts
14-Jun-20 19:49 32.971942 -116.894506 57 9379ft 159kts
14-Jun-20 19:50 32.996475 -116.849726 57 10198ft 160kts
14-Jun-20 19:51 33.020818 -116.805262 57 10992ft 159kts
14-Jun-20 19:52 33.045050 -116.760956 58 11745ft 157kts
14-Jun-20 19:53 33.069760 -116.715692 58 12239ft 167kts
14-Jun-20 19:54 33.095352 -116.668822 58 12746ft 167kts
14-Jun-20 19:55 33.121390 -116.621003 58 12994ft 179kts
14-Jun-20 19:56 33.149541 -116.579080 38 12985ft 191kts
14-Jun-20 19:57 33.193008 -116.540463 36 12956ft 196kts
14-Jun-20 19:58 33.237635 -116.501634 36 12909ft 198kts
14-Jun-20 19:59 33.282417 -116.462675 36 12843ft 198kts
14-Jun-20 20:00 33.327335 -116.423554 36 12800ft 198kts
14-Jun-20 20:01 33.371672 -116.384886 36 12779ft 196kts
14-Jun-20 20:02 33.415954 -116.346215 37 12780ft 195kts
14-Jun-20 20:03 33.459488 -116.308171 37 12930ft 189kts
14-Jun-20 20:04 33.502420 -116.270554 37 12936ft 193kts
14-Jun-20 20:05 33.546162 -116.232208 37 12936ft 194kts
14-Jun-20 20:06 33.589782 -116.193925 37 12936ft 195kts
14-Jun-20 20:07 33.633905 -116.155746 35 12936ft 195kts
14-Jun-20 20:08 33.679035 -116.119451 34 12936ft 195kts
14-Jun-20 20:09 33.724275 -116.083148 34 12936ft 195kts
14-Jun-20 20:10 33.769384 -116.046911 34 12936ft 195kts
14-Jun-20 20:11 33.814696 -116.010466 34 12936ft 195kts
14-Jun-20 20:12 33.859867 -115.974085 34 12936ft 195kts
14-Jun-20 20:13 33.905097 -115.937611 34 12936ft 195kts
14-Jun-20 20:14 33.950137 -115.901245 34 12964ft 194kts
14-Jun-20 20:15 33.994843 -115.865100 34 13018ft 193kts
14-Jun-20 20:16 34.039633 -115.828838 34 13072ft 193kts
14-Jun-20 20:17 34.084148 -115.792753 34 13125ft 193kts
14-Jun-20 20:18 34.127246 -115.752851 43 13127ft 194kts
14-Jun-20 20:19 34.167060 -115.708425 43 13127ft 195kts
14-Jun-20 20:20 34.206926 -115.663636 43 13127ft 195kts
14-Jun-20 20:21 34.246939 -115.618602 43 13127ft 195kts
14-Jun-20 20:22 34.286823 -115.573651 43 13127ft 195kts
14-Jun-20 20:23 34.327629 -115.530488 25 13130ft 196kts
14-Jun-20 20:24 34.378590 -115.506783 20 13127ft 196kts
14-Jun-20 20:25 34.430210 -115.484243 20 13127ft 197kts
14-Jun-20 20:26 34.481872 -115.461742 20 13127ft 197kts
14-Jun-20 20:27 34.533374 -115.439289 20 13127ft 197kts
14-Jun-20 20:28 34.584994 -115.416753 20 13104ft 198kts
14-Jun-20 20:29 34.637050 -115.393994 20 13025ft 200kts
14-Jun-20 20:30 34.689274 -115.371141 20 12985ft 199kts
14-Jun-20 20:31 34.741217 -115.348376 20 12963ft 198kts
14-Jun-20 20:32 34.792877 -115.325706 20 12963ft 197kts
14-Jun-20 20:33 34.844530 -115.303005 20 12963ft 197kts
14-Jun-20 20:34 34.896118 -115.280309 20 12964ft 197kts
14-Jun-20 20:35 34.947678 -115.257607 21 12964ft 196kts
14-Jun-20 20:36 34.999178 -115.234882 21 12964ft 195kts
14-Jun-20 20:37 35.050229 -115.212312 21 12963ft 194kts
14-Jun-20 20:38 35.100222 -115.190201 21 12957ft 193kts
14-Jun-20 20:39 35.150610 -115.196807 328 12953ft 199kts
14-Jun-20 20:40 35.196490 -115.236583 324 12959ft 202kts
14-Jun-20 20:41 35.241598 -115.277864 324 12994ft 201kts
14-Jun-20 20:42 35.286510 -115.319165 324 13026ft 201kts
14-Jun-20 20:43 35.331323 -115.360443 324 13046ft 202kts
14-Jun-20 20:44 35.376370 -115.401996 324 13055ft 202kts
14-Jun-20 20:45 35.421671 -115.443845 324 13055ft 203kts
14-Jun-20 20:46 35.467071 -115.485846 324 13055ft 203kts
14-Jun-20 20:47 35.515234 -115.504918 36 13061ft 192kts
14-Jun-20 20:48 35.554550 -115.460398 49 13055ft 192kts
14-Jun-20 20:49 35.590872 -115.412322 50 13055ft 192kts
14-Jun-20 20:50 35.626936 -115.363871 50 13055ft 192kts
14-Jun-20 20:51 35.663047 -115.315203 50 13055ft 192kts
14-Jun-20 20:52 35.698944 -115.266775 50 13055ft 192kts
14-Jun-20 20:53 35.735036 -115.218015 50 13055ft 192kts
14-Jun-20 20:54 35.771019 -115.169362 50 13053ft 192kts
14-Jun-20 20:55 35.807285 -115.120219 51 13050ft 195kts
14-Jun-20 20:56 35.841340 -115.074083 51 13042ft 171kts
14-Jun-20 20:57 35.872430 -115.031808 52 13041ft 162kts
14-Jun-20 20:58 35.906700 -114.998770 3 12862ft 174kts
14-Jun-20 20:59 35.957602 -114.997578 2 11989ft 182kts
14-Jun-20 21:00 36.006272 -114.996882 3 10939ft 166kts
14-Jun-20 21:01 36.049433 -114.995848 4 9643ft 148kts
14-Jun-20 21:02 36.089818 -114.995125 4 8339ft 148kts
14-Jun-20 21:03 36.130710 -114.996051 352 7160ft 147kts
14-Jun-20 21:04 36.163996 -115.021119 307 5984ft 146kts
14-Jun-20 21:05 36.182793 -115.059943 285 4982ft 114kts
14-Jun-20 21:06 36.179182 -115.093623 239 4133ft 96kts
14-Jun-20 21:07 36.163646 -115.117897 216 3465ft 86kts
14-Jun-20 21:08 36.142862 -115.131416 200 3062ft 82kts
14-Jun-20 21:09 36.122215 -115.143352 200 2816ft 81kts
14-Jun-20 21:10 36.101673 -115.155199 199 2286ft 80kts
14-Jun-20 21:11 36.089254 -115.163049 293 2184ft 10kts
14-Jun-20 21:12 36.088662 -115.165130 205 2184ft 14kts
14-Jun-20 21:13 36.085158 -115.167665 208 2184ft 12kts
14-Jun-20 21:14 36.084114 -115.169620 303 2184ft 6kts

Navigation Log

Ident Type
Flight plan parsing failed, navigation log unavailable